Time;durP1;ratioP1;P1;durP2;ratioP2;P2;SDS_P1;SDS_P2;PMS_P1;PMS_P2;Temp;Humidity;BMP_temperature;BMP_pressure;BME280_temperature;BME280_humidity;BME280_pressure;Samples;Min_cycle;Max_cycle;Signal;HPM_P1;HPM_P2
2023/12/07 00:00:38;;;;;;;8.97;8.03;;;;;;;0.76;100.00;101985.78;5089942;28;20028;-35
2023/12/07 00:03:06;;;;;;;8.77;7.87;;;;;;;0.71;100.00;101988.03;5089855;28;20158;-35
2023/12/07 00:05:32;;;;;;;8.77;7.38;;;;;;;0.69;100.00;101982.84;5089806;28;20045;-35
2023/12/07 00:08:00;;;;;;;7.15;6.00;;;;;;;0.75;100.00;101981.44;5081913;28;20029;-35
2023/12/07 00:10:25;;;;;;;7.20;6.50;;;;;;;0.73;100.00;101978.94;5077077;28;20415;-35
2023/12/07 00:12:50;;;;;;;7.10;6.40;;;;;;;0.76;100.00;101978.63;5076465;28;20107;-35
2023/12/07 00:15:16;;;;;;;6.83;6.20;;;;;;;0.64;100.00;101990.41;5076389;28;20468;-35
2023/12/07 00:17:41;;;;;;;8.00;6.30;;;;;;;0.63;100.00;101975.38;5076069;28;20456;-35
2023/12/07 00:20:07;;;;;;;8.07;7.27;;;;;;;0.57;100.00;101980.44;5075653;28;20032;-35
2023/12/07 00:22:33;;;;;;;8.45;6.93;;;;;;;0.57;100.00;101983.09;5076576;28;20364;-35
2023/12/07 00:24:58;;;;;;;7.47;6.10;;;;;;;0.62;100.00;101973.72;5075906;28;20028;-35
2023/12/07 00:27:24;;;;;;;7.43;6.73;;;;;;;0.65;100.00;101965.47;5076271;28;20039;-36
2023/12/07 00:29:49;;;;;;;7.70;6.90;;;;;;;0.62;100.00;101979.03;5076653;28;20102;-35
2023/12/07 00:32:15;;;;;;;7.50;6.10;;;;;;;0.53;100.00;101969.22;5076183;28;20031;-35
2023/12/07 00:34:40;;;;;;;7.50;6.80;;;;;;;0.52;100.00;101976.34;5076099;28;20028;-36
2023/12/07 00:37:05;;;;;;;7.33;6.57;;;;;;;0.48;100.00;101974.94;5075455;28;20025;-35
2023/12/07 00:39:31;;;;;;;8.00;6.13;;;;;;;0.44;100.00;101983.34;5075717;28;20104;-35
2023/12/07 00:41:56;;;;;;;7.30;6.50;;;;;;;0.33;100.00;101971.00;5075920;28;20024;-35
2023/12/07 00:44:21;;;;;;;7.50;6.70;;;;;;;0.36;100.00;101973.41;5075309;28;20090;-35
2023/12/07 00:46:47;;;;;;;8.07;6.50;;;;;;;0.14;100.00;101969.13;5075803;28;20035;-35
2023/12/07 00:49:12;;;;;;;7.60;5.93;;;;;;;0.29;100.00;101984.72;5076028;28;20029;-36
2023/12/07 00:51:38;;;;;;;7.15;5.95;;;;;;;0.27;100.00;101992.84;5075460;28;20381;-35
2023/12/07 00:54:03;;;;;;;7.30;6.60;;;;;;;0.11;100.00;101964.09;5075658;28;20365;-35
2023/12/07 00:56:29;;;;;;;7.53;6.30;;;;;;;0.29;100.00;101982.88;5075935;28;20044;-35
2023/12/07 00:58:54;;;;;;;7.37;6.57;;;;;;;0.21;100.00;101982.75;5075043;28;20029;-35
2023/12/07 01:01:19;;;;;;;8.27;7.37;;;;;;;0.04;100.00;101943.47;5075568;28;20267;-36
2023/12/07 01:03:44;;;;;;;6.87;6.13;;;;;;;0.22;100.00;101982.59;5075309;28;20029;-36
2023/12/07 01:06:11;;;;;;;7.73;6.93;;;;;;;0.28;100.00;101980.38;5075194;28;20115;-36
2023/12/07 01:08:37;;;;;;;6.68;6.07;;;;;;;0.28;100.00;101967.06;5075334;28;20056;-36
2023/12/07 01:11:02;;;;;;;7.55;6.53;;;;;;;0.29;100.00;101996.19;5075179;28;20067;-36
2023/12/07 01:13:28;;;;;;;8.32;6.60;;;;;;;0.29;100.00;101985.53;5074929;28;20384;-36
2023/12/07 01:15:53;;;;;;;8.07;6.93;;;;;;;0.23;100.00;101992.25;5074938;28;20115;-36
2023/12/07 01:18:19;;;;;;;7.30;6.43;;;;;;;0.27;100.00;101994.66;5074493;28;20077;-36
2023/12/07 01:20:44;;;;;;;6.53;5.83;;;;;;;0.29;100.00;101995.34;5073875;28;20070;-36
2023/12/07 01:23:09;;;;;;;7.37;6.67;;;;;;;0.14;100.00;101995.72;5075350;28;20036;-36
2023/12/07 01:25:35;;;;;;;7.70;6.90;;;;;;;0.05;100.00;101988.56;5074840;28;20031;-36
2023/12/07 01:28:00;;;;;;;8.00;6.67;;;;;;;0.07;100.00;101991.94;5075067;28;20060;-36
2023/12/07 01:30:25;;;;;;;8.80;7.27;;;;;;;0.08;100.00;102006.06;5074803;28;20055;-36
2023/12/07 01:32:51;;;;;;;8.13;6.82;;;;;;;-0.01;100.00;101999.72;5074643;28;20024;-36
2023/12/07 01:35:16;;;;;;;7.53;6.60;;;;;;;0.01;100.00;101995.13;5074815;28;20033;-36
2023/12/07 01:37:42;;;;;;;7.43;6.73;;;;;;;0.02;100.00;101983.50;5074589;28;20028;-36
2023/12/07 01:40:10;;;;;;;9.93;7.20;;;;;;;0.11;100.00;102001.34;5074843;28;20028;-36
2023/12/07 01:42:36;;;;;;;8.38;7.57;;;;;;;0.04;100.00;101996.66;5075023;28;20119;-36
2023/12/07 01:45:02;;;;;;;9.95;8.65;;;;;;;0.01;100.00;101995.13;5074113;28;20036;-36
2023/12/07 01:47:27;;;;;;;10.27;7.43;;;;;;;0.01;100.00;101997.78;5074366;28;20412;-36
2023/12/07 01:49:53;;;;;;;8.93;7.37;;;;;;;0.10;100.00;102001.44;5074605;28;20032;-36
2023/12/07 01:52:22;;;;;;;8.23;7.20;;;;;;;0.12;100.00;102003.00;5074802;28;20021;-36
2023/12/07 01:54:47;;;;;;;7.90;6.90;;;;;;;0.13;100.00;101996.72;5073921;28;20029;-36
2023/12/07 01:57:13;;;;;;;8.88;7.45;;;;;;;0.05;100.00;101982.38;5074565;28;20059;-36
2023/12/07 01:59:39;;;;;;;8.48;7.63;;;;;;;0.15;100.00;101992.13;5074906;28;20441;-36
2023/12/07 02:02:04;;;;;;;10.00;8.87;;;;;;;0.16;100.00;101998.28;5074609;28;20052;-36
2023/12/07 02:04:30;;;;;;;8.50;7.60;;;;;;;0.13;100.00;101999.38;5074052;28;20487;-36
2023/12/07 02:06:57;;;;;;;9.48;8.50;;;;;;;0.11;100.00;101997.84;5074295;28;20294;-36
2023/12/07 02:09:22;;;;;;;9.18;7.70;;;;;;;0.05;100.00;101983.25;5073925;28;20362;-36
2023/12/07 02:11:48;;;;;;;8.27;7.30;;;;;;;0.19;100.00;101996.16;5074766;28;20028;-36
2023/12/07 02:14:13;;;;;;;8.27;7.47;;;;;;;-0.09;100.00;101963.19;5074402;28;20033;-36
2023/12/07 02:17:00;;;;;;;10.77;9.10;;;;;;;0.11;100.00;101998.69;5074632;28;20082;-36
2023/12/07 02:19:51;;;;;;;7.95;7.15;;;;;;;0.15;100.00;101997.44;5074154;28;20452;-36
2023/12/07 02:22:31;;;;;;;10.57;8.50;;;;;;;0.00;100.00;101996.13;5073475;28;20024;-36
2023/12/07 02:25:09;;;;;;;8.77;7.57;;;;;;;0.04;100.00;102002.00;5073351;28;20036;-36
2023/12/07 02:27:47;;;;;;;10.07;8.32;;;;;;;0.10;100.00;102009.44;5073994;28;20115;-36
2023/12/07 02:30:13;;;;;;;8.55;7.55;;;;;;;0.14;100.00;102009.03;5074005;28;20113;-36
2023/12/07 02:32:40;;;;;;;10.65;8.65;;;;;;;0.07;100.00;102013.22;5073414;28;20116;-36
2023/12/07 02:35:08;;;;;;;12.77;9.55;;;;;;;-0.05;100.00;102001.84;5074115;28;20115;-36
2023/12/07 02:37:40;;;;;;;9.48;8.30;;;;;;;0.17;100.00;102008.78;5073279;28;20055;-36
2023/12/07 02:40:11;;;;;;;14.05;10.73;;;;;;;0.04;100.00;102007.31;5073528;28;20031;-35
2023/12/07 02:42:41;;;;;;;44.17;12.65;;;;;;;-0.08;100.00;101985.28;5073795;28;20032;-36
2023/12/07 02:45:10;;;;;;;23.30;11.93;;;;;;;-0.03;100.00;102004.34;5073446;28;20027;-36
2023/12/07 02:47:36;;;;;;;17.75;11.18;;;;;;;-0.04;100.00;101990.22;5073757;28;20085;-36
2023/12/07 02:50:03;;;;;;;41.80;13.02;;;;;;;-0.02;100.00;101992.72;5073429;28;20028;-36
2023/12/07 02:52:28;;;;;;;47.40;13.00;;;;;;;0.11;100.00;101990.69;5073785;28;20054;-36
2023/12/07 02:54:54;;;;;;;33.17;11.30;;;;;;;0.10;100.00;101978.38;5073383;28;20079;-36
2023/12/07 02:57:19;;;;;;;52.97;12.50;;;;;;;0.19;100.00;101992.66;5074586;28;20418;-36
2023/12/07 02:59:44;;;;;;;44.33;12.93;;;;;;;0.22;100.00;101995.91;5073664;28;20032;-36
2023/12/07 03:02:10;;;;;;;65.50;13.97;;;;;;;0.18;100.00;101994.47;5073387;28;20035;-36
2023/12/07 03:04:35;;;;;;;35.77;12.63;;;;;;;0.16;100.00;101984.97;5073285;28;20063;-36
2023/12/07 03:07:00;;;;;;;77.20;14.37;;;;;;;-0.06;100.00;101994.81;5073854;28;20059;-36
2023/12/07 03:09:26;;;;;;;45.10;12.03;;;;;;;-0.05;100.00;101990.31;5072895;28;20060;-36
2023/12/07 03:11:51;;;;;;;37.20;11.97;;;;;;;-0.12;100.00;101998.00;5073532;28;20028;-36
2023/12/07 03:14:17;;;;;;;52.37;13.17;;;;;;;-0.18;100.00;102005.69;5073237;28;20484;-36
2023/12/07 03:16:42;;;;;;;39.50;11.43;;;;;;;-0.21;100.00;102019.22;5073964;28;20055;-36
2023/12/07 03:19:07;;;;;;;47.93;12.37;;;;;;;-0.26;100.00;102011.66;5073377;28;20094;-36
2023/12/07 03:21:33;;;;;;;54.27;12.30;;;;;;;-0.34;100.00;102007.00;5073385;28;20025;-36
2023/12/07 03:23:58;;;;;;;20.73;10.63;;;;;;;-0.26;100.00;102011.66;5072915;28;20751;-36
2023/12/07 03:26:23;;;;;;;50.07;11.97;;;;;;;-0.32;100.00;102007.72;5073467;28;20524;-36
2023/12/07 03:28:49;;;;;;;51.60;12.70;;;;;;;-0.35;100.00;102018.59;5073108;28;20142;-36
2023/12/07 03:31:14;;;;;;;39.27;10.60;;;;;;;-0.49;100.00;101992.34;5073088;28;20028;-36
2023/12/07 03:33:42;;;;;;;52.47;11.77;;;;;;;-0.38;100.00;102018.03;5073055;28;20025;-36
2023/12/07 03:36:10;;;;;;;60.53;12.90;;;;;;;-0.41;100.00;102013.81;5073236;28;20103;-36
2023/12/07 03:38:35;;;;;;;47.20;11.57;;;;;;;-0.34;100.00;102011.44;5072646;28;20033;-36
2023/12/07 03:41:01;;;;;;;74.50;13.10;;;;;;;-0.40;100.00;102009.31;5073014;28;20039;-36
2023/12/07 03:43:26;;;;;;;20.13;9.23;;;;;;;-0.23;100.00;102016.72;5075276;28;20116;-36
2023/12/07 03:45:52;;;;;;;31.70;11.40;;;;;;;-0.28;100.00;102013.59;5077041;28;20052;-36
2023/12/07 03:48:17;;;;;;;32.03;11.35;;;;;;;-0.23;100.00;102010.56;5076581;28;20048;-36
2023/12/07 03:50:42;;;;;;;41.07;12.00;;;;;;;-0.22;100.00;102017.56;5076341;28;20028;-36
2023/12/07 03:53:08;;;;;;;69.17;12.70;;;;;;;-0.27;100.00;102013.47;5076597;28;20027;-36
2023/12/07 03:55:33;;;;;;;39.00;11.73;;;;;;;-0.22;100.00;102028.19;5076290;28;20064;-36
2023/12/07 03:57:58;;;;;;;66.33;12.03;;;;;;;-0.34;100.00;102019.44;5076155;28;20108;-36
2023/12/07 04:00:23;;;;;;;62.20;12.47;;;;;;;-0.36;100.00;102034.69;5076762;28;20040;-36
2023/12/07 04:02:49;;;;;;;56.57;12.23;;;;;;;-0.53;100.00;102010.38;5076374;28;20027;-36
2023/12/07 04:05:14;;;;;;;69.70;13.50;;;;;;;-0.40;100.00;102044.72;5076685;28;20524;-36
2023/12/07 04:07:39;;;;;;;45.97;12.23;;;;;;;-0.39;100.00;102043.78;5076863;28;20028;-36
2023/12/07 04:10:06;;;;;;;57.60;13.90;;;;;;;-0.44;100.00;102037.13;5076050;28;20753;-36
2023/12/07 04:12:31;;;;;;;43.70;11.57;;;;;;;-0.42;100.00;102033.38;5076240;28;20029;-35
2023/12/07 04:14:57;;;;;;;41.47;12.13;;;;;;;-0.47;100.00;102026.78;5076120;28;20024;-36
2023/12/07 04:17:22;;;;;;;57.10;13.50;;;;;;;-0.53;100.00;102028.16;5076395;28;20119;-36
2023/12/07 04:19:47;;;;;;;71.33;13.70;;;;;;;-0.44;100.00;102032.69;5076670;28;20069;-36
2023/12/07 04:22:13;;;;;;;51.90;12.67;;;;;;;-0.40;100.00;102041.22;5076368;28;20024;-36
2023/12/07 04:24:38;;;;;;;46.10;12.67;;;;;;;-0.44;100.00;102034.47;5076010;28;20024;-36
2023/12/07 04:27:04;;;;;;;43.47;13.10;;;;;;;-0.37;100.00;102035.66;5076545;28;20062;-36
2023/12/07 04:29:29;;;;;;;49.92;12.93;;;;;;;-0.46;100.00;102020.50;5075931;28;20021;-36
2023/12/07 04:31:55;;;;;;;63.97;13.70;;;;;;;-0.45;100.00;102028.31;5076399;28;20020;-36
2023/12/07 04:34:20;;;;;;;26.27;12.70;;;;;;;-0.33;100.00;102043.25;5076148;28;20024;-36
2023/12/07 04:36:45;;;;;;;25.07;11.83;;;;;;;-0.29;100.00;102050.00;5075998;28;20033;-36
2023/12/07 04:39:11;;;;;;;51.57;15.50;;;;;;;-0.41;100.00;102037.72;5076050;28;20028;-36
2023/12/07 04:41:36;;;;;;;33.67;14.20;;;;;;;-0.42;100.00;102038.69;5076536;28;20025;-36
2023/12/07 04:44:01;;;;;;;56.63;15.83;;;;;;;-0.39;100.00;102053.53;5075925;28;20025;-36
2023/12/07 04:46:28;;;;;;;29.67;13.43;;;;;;;-0.39;100.00;102051.75;5075619;28;20032;-36
2023/12/07 04:48:54;;;;;;;37.03;14.48;;;;;;;-0.38;100.00;102045.44;5075448;28;20028;-36
2023/12/07 04:51:19;;;;;;;42.95;14.18;;;;;;;-0.36;100.00;102040.84;5076028;28;20139;-36
2023/12/07 04:53:45;;;;;;;22.00;12.53;;;;;;;-0.29;100.00;102047.34;5075603;28;20028;-36
2023/12/07 04:56:10;;;;;;;49.67;14.70;;;;;;;-0.33;100.00;102037.09;5075787;28;20041;-36
2023/12/07 04:58:35;;;;;;;27.10;13.00;;;;;;;-0.24;100.00;102041.63;5075616;28;20056;-36
2023/12/07 05:01:01;;;;;;;32.33;11.93;;;;;;;-0.27;100.00;102042.72;5075370;28;20442;-36
2023/12/07 05:03:26;;;;;;;47.57;12.03;;;;;;;-0.33;100.00;102040.59;5075194;28;20025;-36
2023/12/07 05:05:51;;;;;;;47.33;14.20;;;;;;;-0.41;100.00;102029.75;5075629;28;20021;-36
2023/12/07 05:08:17;;;;;;;66.87;13.60;;;;;;;-0.44;100.00;102022.06;5075250;28;20079;-36
2023/12/07 05:10:43;;;;;;;56.63;14.63;;;;;;;-0.44;100.00;102023.84;5075163;28;20108;-36
2023/12/07 05:13:08;;;;;;;38.28;14.23;;;;;;;-0.54;100.00;102014.03;5074840;28;20150;-36
2023/12/07 05:15:34;;;;;;;47.03;15.25;;;;;;;-0.40;100.00;102026.13;5074954;28;20029;-36
2023/12/07 05:17:59;;;;;;;51.73;15.83;;;;;;;-0.49;100.00;102018.09;5075302;28;20021;-36
2023/12/07 05:20:26;;;;;;;49.10;16.20;;;;;;;-0.47;100.00;102019.66;5074681;28;20023;-36
2023/12/07 05:22:52;;;;;;;52.05;16.48;;;;;;;-0.58;100.00;102017.06;5075399;28;20024;-36
2023/12/07 05:25:18;;;;;;;72.63;15.80;;;;;;;-0.47;100.00;102029.44;5076004;28;20357;-36
2023/12/07 05:27:43;;;;;;;;;;;;;;;-0.40;100.00;102026.13;5074903;28;20476;-36
2023/12/07 05:30:09;;;;;;;59.47;14.20;;;;;;;-0.46;100.00;102023.16;5075060;28;19974;-36
2023/12/07 05:32:35;;;;;;;78.93;15.90;;;;;;;-0.47;100.00;102019.66;5074753;28;20361;-36
2023/12/07 05:35:00;;;;;;;64.23;15.33;;;;;;;-0.58;100.00;102009.09;5074643;28;20021;-36
2023/12/07 05:37:26;;;;;;;42.53;12.60;;;;;;;-0.49;100.00;102016.25;5074518;28;20020;-36
2023/12/07 05:39:51;;;;;;;62.67;13.88;;;;;;;-0.50;100.00;102014.59;5074214;28;20029;-36
2023/12/07 05:42:16;;;;;;;45.17;12.63;;;;;;;-0.46;100.00;102010.69;5074556;28;20020;-36
2023/12/07 05:44:42;;;;;;;52.77;13.80;;;;;;;-0.49;100.00;102010.94;5074131;28;20039;-36
2023/12/07 05:47:07;;;;;;;34.03;12.67;;;;;;;-0.43;100.00;102013.09;5074368;28;20028;-36
2023/12/07 05:49:33;;;;;;;37.92;12.93;;;;;;;-0.47;100.00;102002.88;5074054;28;20033;-36
2023/12/07 05:51:58;;;;;;;38.17;12.45;;;;;;;-0.43;100.00;102013.09;5074889;28;20028;-36
2023/12/07 05:54:24;;;;;;;54.40;12.67;;;;;;;-0.44;100.00;102013.22;5074815;28;20048;-36
2023/12/07 05:56:49;;;;;;;46.17;12.30;;;;;;;-0.50;100.00;101995.97;5074691;28;20165;-36
2023/12/07 05:59:15;;;;;;;55.07;12.60;;;;;;;-0.52;100.00;101997.94;5074439;28;20029;-36
2023/12/07 06:01:40;;;;;;;64.63;13.45;;;;;;;-0.46;100.00;102015.19;5074466;28;20384;-36
2023/12/07 06:04:09;;;;;;;34.47;11.37;;;;;;;-0.48;100.00;102012.66;5074054;28;20461;-36
2023/12/07 06:06:34;;;;;;;48.15;11.70;;;;;;;-0.45;100.00;102007.06;5073555;28;20056;-36
2023/12/07 06:09:00;;;;;;;59.50;12.63;;;;;;;-0.47;100.00;102011.69;5073969;28;20106;-36
2023/12/07 06:11:25;;;;;;;33.57;10.57;;;;;;;-0.45;100.00;102007.06;5073952;28;20063;-36
2023/12/07 06:13:50;;;;;;;40.00;10.53;;;;;;;-0.36;100.00;102016.06;5073688;28;20283;-36
2023/12/07 06:16:17;;;;;;;33.67;11.00;;;;;;;-0.33;100.00;102016.66;5074116;28;20028;-36
2023/12/07 06:18:42;;;;;;;28.40;11.90;;;;;;;-0.32;100.00;102002.38;5073437;28;20514;-36
2023/12/07 06:21:08;;;;;;;37.80;11.88;;;;;;;-0.29;100.00;102012.78;5073526;28;20032;-36
2023/12/07 06:23:34;;;;;;;51.03;13.13;;;;;;;-0.33;100.00;102005.19;5073762;28;20025;-36
2023/12/07 06:25:59;;;;;;;22.50;11.05;;;;;;;-0.19;100.00;102012.00;5074051;28;20103;-36
2023/12/07 06:28:24;;;;;;;34.57;11.53;;;;;;;-0.22;100.00;102023.72;5073424;28;20032;-36
2023/12/07 06:30:50;;;;;;;35.63;11.17;;;;;;;-0.23;100.00;102027.34;5073748;28;20028;-36
2023/12/07 06:33:15;;;;;;;51.00;12.33;;;;;;;-0.23;100.00;102030.00;5073587;28;20267;-36
2023/12/07 06:35:41;;;;;;;26.67;11.00;;;;;;;-0.20;100.00;102023.56;5073836;28;20120;-36
2023/12/07 06:38:06;;;;;;;39.93;12.40;;;;;;;-0.30;100.00;102000.44;5073855;28;20028;-36
2023/12/07 06:40:31;;;;;;;67.40;13.53;;;;;;;-0.25;100.00;102010.66;5073858;28;20099;-36
2023/12/07 06:42:57;;;;;;;58.23;12.97;;;;;;;-0.29;100.00;102006.63;5073533;28;20078;-36
2023/12/07 06:45:22;;;;;;;42.93;11.43;;;;;;;-0.28;100.00;102005.63;5074398;28;20040;-35
2023/12/07 06:47:47;;;;;;;47.67;12.20;;;;;;;-0.40;100.00;101983.59;5073474;28;20028;-36
2023/12/07 06:50:13;;;;;;;52.83;11.37;;;;;;;-0.24;100.00;102000.88;5073501;28;20384;-35
2023/12/07 06:52:39;;;;;;;61.67;10.82;;;;;;;-0.27;100.00;102004.66;5074005;28;20029;-35
2023/12/07 06:55:05;;;;;;;;;;;;;;;-0.21;100.00;101997.97;5073673;28;20420;-36
2023/12/07 06:57:30;;;;;;;68.72;11.25;;;;;;;-0.34;100.00;101987.53;5073632;28;19947;-35
2023/12/07 06:59:56;;;;;;;42.77;10.53;;;;;;;-0.24;100.00;101998.22;5073667;28;20025;-36
2023/12/07 07:02:23;;;;;;;75.07;11.00;;;;;;;-0.33;100.00;101983.94;5073952;28;20431;-35
2023/12/07 07:04:48;;;;;;;38.72;10.75;;;;;;;-0.19;100.00;101986.25;5073239;28;20028;-35
2023/12/07 07:07:17;;;;;;;81.88;14.05;;;;;;;-0.31;100.00;101980.16;5074064;28;20162;-36
2023/12/07 07:09:42;;;;;;;46.08;9.98;;;;;;;-0.20;100.00;101973.91;5073194;28;20024;-36
2023/12/07 07:12:08;;;;;;;21.37;8.97;;;;;;;-0.11;100.00;101991.72;5073898;28;20479;-35
2023/12/07 07:14:34;;;;;;;32.97;8.82;;;;;;;-0.14;100.00;101985.84;5073490;28;20020;-35
2023/12/07 07:16:59;;;;;;;29.30;9.77;;;;;;;-0.11;100.00;101993.53;5073647;28;20467;-35
2023/12/07 07:19:25;;;;;;;39.30;10.20;;;;;;;-0.07;100.00;101997.63;5077210;28;20032;-35
2023/12/07 07:21:50;;;;;;;47.87;10.73;;;;;;;-0.12;100.00;101992.69;5077467;28;20067;-36
2023/12/07 07:24:15;;;;;;;28.40;9.77;;;;;;;-0.24;100.00;101972.50;5077724;28;20032;-36
2023/12/07 07:26:41;;;;;;;28.43;9.80;;;;;;;-0.12;100.00;101998.00;5077398;28;20151;-35
2023/12/07 07:29:06;;;;;;;48.80;10.17;;;;;;;-0.17;100.00;102002.03;5077140;28;20162;-36
2023/12/07 07:31:32;;;;;;;30.03;9.43;;;;;;;-0.07;100.00;102016.22;5076808;28;20040;-36
2023/12/07 07:33:57;;;;;;;31.00;8.80;;;;;;;0.00;100.00;102025.38;5076992;28;20040;-36
2023/12/07 07:36:22;;;;;;;32.17;10.83;;;;;;;-0.07;100.00;102024.19;5077663;28;20044;-36
2023/12/07 07:38:48;;;;;;;35.57;9.87;;;;;;;-0.09;100.00;102023.50;5075619;28;20054;-36
2023/12/07 07:41:13;;;;;;;50.20;10.70;;;;;;;-0.18;100.00;102003.88;5076855;28;20046;-36
2023/12/07 07:43:39;;;;;;;36.33;9.90;;;;;;;-0.10;100.00;102020.00;5077558;28;20059;-36
2023/12/07 07:46:05;;;;;;;24.33;9.40;;;;;;;-0.04;100.00;102013.31;5076825;28;20033;-36
2023/12/07 07:48:30;;;;;;;38.72;11.38;;;;;;;-0.27;100.00;101992.19;5075498;28;20028;-36
2023/12/07 07:50:56;;;;;;;31.37;10.40;;;;;;;-0.16;100.00;102011.69;5076625;28;20032;-36
2023/12/07 07:53:21;;;;;;;28.07;10.27;;;;;;;-0.12;100.00;102013.13;5076583;28;20032;-35
2023/12/07 07:55:46;;;;;;;35.43;10.83;;;;;;;-0.21;100.00;102011.25;5077021;28;20047;-36
2023/12/07 07:58:12;;;;;;;30.80;10.27;;;;;;;-0.18;100.00;102016.31;5076710;28;20047;-36
2023/12/07 08:00:37;;;;;;;29.57;10.03;;;;;;;-0.17;100.00;102018.84;5075044;28;20028;-36
2023/12/07 08:03:03;;;;;;;32.13;11.63;;;;;;;-0.30;100.00;102005.75;5076349;28;20031;-36
2023/12/07 08:05:28;;;;;;;23.17;10.52;;;;;;;-0.12;100.00;102003.31;5076440;28;20043;-36
2023/12/07 08:07:54;;;;;;;20.20;10.40;;;;;;;-0.08;100.00;102003.91;5076358;28;20127;-36
2023/12/07 08:10:20;;;;;;;28.52;11.20;;;;;;;-0.08;100.00;102003.91;5076333;28;20024;-36
2023/12/07 08:12:45;;;;;;;;;;;;;;;0.03;100.00;101995.84;5076660;28;20477;-36
2023/12/07 08:15:11;;;;;;;36.27;11.63;;;;;;;-0.04;100.00;101989.38;5076459;28;19915;-36
2023/12/07 08:17:40;;;;;;;21.67;11.83;;;;;;;-0.01;100.00;101994.41;5076664;28;20627;-36
2023/12/07 08:20:10;;;;;;;21.67;10.50;;;;;;;0.08;100.00;102009.56;5076354;28;20021;-36
2023/12/07 08:22:36;;;;;;;27.45;11.75;;;;;;;-0.05;100.00;101987.66;5076285;28;20480;-36
2023/12/07 08:25:02;;;;;;;;;;;;;;;0.15;100.00;102010.72;5076698;28;20075;-36
2023/12/07 08:27:28;;;;;;;19.67;10.95;;;;;;;0.18;100.00;102010.44;5076296;28;19909;-36
2023/12/07 08:29:53;;;;;;;26.53;12.10;;;;;;;0.18;100.00;102010.44;5075469;28;20029;-36
2023/12/07 08:32:19;;;;;;;22.77;12.40;;;;;;;0.23;100.00;102004.72;5075914;28;20112;-36
2023/12/07 08:34:44;;;;;;;24.45;11.95;;;;;;;0.23;100.00;102007.38;5075634;28;20029;-35
2023/12/07 08:37:10;;;;;;;30.58;12.45;;;;;;;0.28;100.00;102014.97;5076273;28;20029;-35
2023/12/07 08:39:35;;;;;;;22.50;12.00;;;;;;;0.25;100.00;101994.81;5075752;28;20025;-35
2023/12/07 08:42:01;;;;;;;32.07;13.93;;;;;;;0.25;100.00;102000.13;5075722;28;20385;-35
2023/12/07 08:44:26;;;;;;;26.43;12.07;;;;;;;0.30;100.00;102005.88;5076010;28;20066;-35
2023/12/07 08:46:52;;;;;;;28.38;12.90;;;;;;;0.29;100.00;102008.66;5076498;28;20638;-35
2023/12/07 08:49:17;;;;;;;21.00;13.67;;;;;;;0.32;100.00;102003.06;5075575;28;20031;-35
2023/12/07 08:51:43;;;;;;;22.73;13.37;;;;;;;0.19;100.00;101979.34;5075961;28;20380;-36
2023/12/07 08:54:08;;;;;;;31.63;14.32;;;;;;;0.35;100.00;102013.47;5075564;28;20035;-36
2023/12/07 08:56:34;;;;;;;25.90;14.90;;;;;;;0.34;100.00;102014.41;5076097;28;20123;-36
2023/12/07 08:58:59;;;;;;;21.53;13.23;;;;;;;0.41;100.00;102010.25;5075769;28;20067;-36
2023/12/07 09:01:26;;;;;;;28.30;14.50;;;;;;;0.38;100.00;102010.50;5075431;28;20098;-36
2023/12/07 09:03:51;;;;;;;24.05;15.55;;;;;;;0.42;100.00;102009.25;5075310;28;20076;-36
2023/12/07 09:06:17;;;;;;;28.45;15.23;;;;;;;0.43;100.00;102008.28;5075566;28;20052;-36
2023/12/07 09:08:43;;;;;;;32.10;14.50;;;;;;;0.44;100.00;102012.63;5075496;28;20028;-36
2023/12/07 09:11:08;;;;;;;21.95;14.88;;;;;;;0.45;100.00;102009.00;5076028;28;20054;-36
2023/12/07 09:13:34;;;;;;;20.87;14.87;;;;;;;0.34;100.00;101983.34;5075387;28;20460;-36
2023/12/07 09:15:59;;;;;;;19.73;13.70;;;;;;;0.47;100.00;101991.06;5075899;28;20286;-36
2023/12/07 09:18:24;;;;;;;19.80;14.10;;;;;;;0.49;100.00;101987.31;5075012;28;20108;-36
2023/12/07 09:20:50;;;;;;;19.77;14.17;;;;;;;0.54;100.00;101989.56;5075578;28;20025;-35
2023/12/07 09:23:15;;;;;;;19.13;13.17;;;;;;;0.52;100.00;101983.50;5075278;28;20449;-35
2023/12/07 09:25:42;;;;;;;20.58;13.98;;;;;;;0.44;100.00;101976.22;5074567;28;20024;-35
2023/12/07 09:28:07;;;;;;;22.80;14.85;;;;;;;0.47;100.00;101991.91;5074736;28;20028;-35
2023/12/07 09:30:33;;;;;;;24.73;15.90;;;;;;;0.55;100.00;101996.56;5074807;28;20055;-35
2023/12/07 09:32:59;;;;;;;19.83;14.23;;;;;;;0.61;100.00;101993.34;5074617;28;20028;-35
2023/12/07 09:35:24;;;;;;;22.80;14.98;;;;;;;0.66;100.00;102001.75;5074576;28;20461;-35
2023/12/07 09:37:50;;;;;;;23.03;15.93;;;;;;;0.68;100.00;101993.59;5074821;28;20044;-35
2023/12/07 09:40:19;;;;;;;24.92;15.48;;;;;;;0.68;100.00;101990.94;5074531;28;20107;-35
2023/12/07 09:42:46;;;;;;;25.70;15.35;;;;;;;0.63;100.00;101978.06;5075282;28;20111;-35
2023/12/07 09:45:13;;;;;;;25.60;15.85;;;;;;;0.71;100.00;101985.34;5074474;28;20362;-35
2023/12/07 09:47:40;;;;;;;23.85;15.88;;;;;;;0.56;100.00;101954.81;5075028;28;20077;-35
2023/12/07 09:50:08;;;;;;;24.73;16.13;;;;;;;0.75;100.00;101973.47;5074300;28;20050;-37
2023/12/07 09:52:33;;;;;;;22.77;14.23;;;;;;;0.83;100.00;101970.94;5074587;28;20090;-35
2023/12/07 09:55:01;;;;;;;24.40;16.15;;;;;;;0.79;100.00;101972.19;5074295;28;20456;-35
2023/12/07 09:57:27;;;;;;;23.73;16.25;;;;;;;0.81;100.00;101975.56;5074542;28;20044;-36
2023/12/07 09:59:53;;;;;;;25.23;16.48;;;;;;;0.73;100.00;101952.31;5074125;28;20530;-35
2023/12/07 10:02:18;;;;;;;24.33;15.73;;;;;;;0.77;100.00;101937.72;5074169;28;20028;-35
2023/12/07 10:04:43;;;;;;;25.50;17.15;;;;;;;0.87;100.00;101952.84;5073898;28;20028;-35
2023/12/07 10:07:09;;;;;;;24.23;15.80;;;;;;;0.93;100.00;101941.66;5074074;28;20036;-35
2023/12/07 10:09:39;;;;;;;22.08;15.13;;;;;;;0.97;100.00;101932.38;5073713;28;20043;-36
2023/12/07 10:12:05;;;;;;;27.05;17.00;;;;;;;0.99;100.00;101925.09;5073964;28;20028;-35
2023/12/07 10:14:31;;;;;;;;;;;;;;;1.10;100.00;101924.09;5074331;28;20066;-35
2023/12/07 10:16:56;;;;;;;25.35;15.75;;;;;;;0.93;100.00;101896.38;5074094;28;20276;-35
2023/12/07 10:19:23;;;;;;;26.00;16.53;;;;;;;1.10;100.00;101918.75;5074679;28;20426;-36
2023/12/07 10:21:52;;;;;;;24.65;15.50;;;;;;;1.13;100.00;101911.34;5074667;28;20259;-35
2023/12/07 10:24:19;;;;;;;23.15;15.95;;;;;;;1.23;100.00;101912.16;5073466;28;20028;-35
2023/12/07 10:26:46;;;;;;;23.52;15.15;;;;;;;1.21;100.00;101898.13;5073749;28;20047;-35
2023/12/07 10:29:11;;;;;;;24.65;16.73;;;;;;;1.28;100.00;101899.25;5073649;28;20040;-35
2023/12/07 10:31:37;;;;;;;22.40;15.93;;;;;;;1.25;100.00;101882.69;5073736;28;20024;-35
2023/12/07 10:34:04;;;;;;;20.98;14.75;;;;;;;1.37;100.00;101878.03;5073546;28;20028;-35
2023/12/07 10:36:30;;;;;;;22.00;15.10;;;;;;;1.41;100.00;101882.06;5073620;28;20385;-35
2023/12/07 10:38:56;;;;;;;17.73;13.68;;;;;;;1.47;100.00;101874.34;5073624;28;20510;-35
2023/12/07 10:41:23;;;;;;;20.00;14.73;;;;;;;1.58;100.00;101875.16;5073637;28;20056;-35
2023/12/07 10:43:51;;;;;;;18.85;15.05;;;;;;;1.61;100.00;101874.84;5073472;28;20107;-36
2023/12/07 10:46:20;;;;;;;19.90;14.50;;;;;;;1.59;100.00;101874.16;5073521;28;20037;-35
2023/12/07 10:48:48;;;;;;;18.75;14.05;;;;;;;1.58;100.00;101875.97;5073487;28;20025;-36
2023/12/07 10:51:25;;;;;;;18.15;13.63;;;;;;;1.66;100.00;101867.22;5073546;28;20111;-35
2023/12/07 10:53:53;;;;;;;16.15;13.68;;;;;;;1.64;100.00;101853.22;5073766;28;20052;-35
2023/12/07 10:56:29;;;;;;;16.10;13.25;;;;;;;1.66;100.00;101853.91;5072955;28;20060;-35
2023/12/07 10:58:55;;;;;;;16.33;13.52;;;;;;;1.70;100.00;101857.97;5073008;28;20365;-36
2023/12/07 11:01:22;;;;;;;18.43;14.23;;;;;;;1.64;100.00;101848.72;5074255;28;20025;-35
2023/12/07 11:03:50;;;;;;;16.25;13.38;;;;;;;1.77;100.00;101856.38;5073002;28;20036;-36
2023/12/07 11:06:18;;;;;;;15.82;13.73;;;;;;;1.78;100.00;101847.41;5073628;28;20036;-35